Alger, Ohio
Current Conditions -  °F | °C
As of 11:53 AM on Thursday 30 Oct 2014 (Local Time) from KAOH Reporting Station
Overcast Overcast  
Wind Chill: 49°   Ceiling: 4200
Heat Index: 49°   Visibility: 10mi
Dew Point: 35°   Wind: 0mph
Humidity: 59%   Direction: NA
Pressure: 30.15"   Gusts: NA
Location:  40.71°N, 83.84°W
Report Text: KAOH 301553Z AUTO 00000KT 10SM OVC042 09/02 A3015 RMK AO2 SLP213 T00940017
Loading
Personal Weather Stations






























Interactive Weather Map
Tropical Storm Tracking
New forecast layout! Learn more

10-Day Weather Forecast

Advertisements
Track Severe Weather on mobile